sensor_id;sensor_type;location;lat;lon;timestamp;temperature;humidity
20985;DHT22;10651;47.552;7.606;2023-07-02T06:16:13;19.30;99.90
20985;DHT22;10651;47.552;7.606;2023-07-02T06:19:54;19.30;99.90
20985;DHT22;10651;47.552;7.606;2023-07-02T06:22:20;19.30;99.90
20985;DHT22;10651;47.552;7.606;2023-07-02T06:24:45;19.30;99.90
20985;DHT22;10651;47.552;7.606;2023-07-02T06:27:11;19.40;99.90
20985;DHT22;10651;47.552;7.606;2023-07-02T06:29:37;19.20;99.90
20985;DHT22;10651;47.552;7.606;2023-07-02T06:32:03;19.20;99.90
20985;DHT22;10651;47.552;7.606;2023-07-02T06:34:29;19.30;99.90
20985;DHT22;10651;47.552;7.606;2023-07-02T06:36:54;19.30;99.90
20985;DHT22;10651;47.552;7.606;2023-07-02T06:39:20;19.30;99.90
20985;DHT22;10651;47.552;7.606;2023-07-02T06:41:46;19.30;99.90
20985;DHT22;10651;47.552;7.606;2023-07-02T06:44:12;19.30;99.90
20985;DHT22;10651;47.552;7.606;2023-07-02T06:46:38;19.20;99.90
20985;DHT22;10651;47.552;7.606;2023-07-02T06:49:03;19.20;99.90
20985;DHT22;10651;47.552;7.606;2023-07-02T06:51:29;19.20;99.90
20985;DHT22;10651;47.552;7.606;2023-07-02T06:53:55;19.20;99.90
20985;DHT22;10651;47.552;7.606;2023-07-02T06:56:21;19.20;99.90
20985;DHT22;10651;47.552;7.606;2023-07-02T06:58:47;19.30;99.90
20985;DHT22;10651;47.552;7.606;2023-07-02T07:01:20;19.30;99.90
20985;DHT22;10651;47.552;7.606;2023-07-02T07:03:45;19.30;99.90
20985;DHT22;10651;47.552;7.606;2023-07-02T07:06:11;19.20;99.90
20985;DHT22;10651;47.552;7.606;2023-07-02T07:08:38;19.20;99.90
20985;DHT22;10651;47.552;7.606;2023-07-02T07:11:04;19.50;99.90
20985;DHT22;10651;47.552;7.606;2023-07-02T07:13:30;19.40;99.90
20985;DHT22;10651;47.552;7.606;2023-07-02T07:15:55;19.30;99.90
20985;DHT22;10651;47.552;7.606;2023-07-02T07:18:21;19.30;99.90
20985;DHT22;10651;47.552;7.606;2023-07-02T07:20:47;19.40;99.90
20985;DHT22;10651;47.552;7.606;2023-07-02T07:23:13;19.30;99.90
20985;DHT22;10651;47.552;7.606;2023-07-02T07:25:39;19.30;99.90
20985;DHT22;10651;47.552;7.606;2023-07-02T07:28:05;19.20;99.90
20985;DHT22;10651;47.552;7.606;2023-07-02T07:30:31;19.10;99.90
20985;DHT22;10651;47.552;7.606;2023-07-02T07:32:57;18.80;99.90
20985;DHT22;10651;47.552;7.606;2023-07-02T07:35:23;18.70;99.90
20985;DHT22;10651;47.552;7.606;2023-07-02T07:37:49;18.80;99.90
20985;DHT22;10651;47.552;7.606;2023-07-02T07:40:15;18.80;99.90
20985;DHT22;10651;47.552;7.606;2023-07-02T07:42:41;18.80;99.90
20985;DHT22;10651;47.552;7.606;2023-07-02T07:45:10;18.80;99.90
20985;DHT22;10651;47.552;7.606;2023-07-02T07:47:37;18.80;99.90
20985;DHT22;10651;47.552;7.606;2023-07-02T07:50:03;18.80;99.90
20985;DHT22;10651;47.552;7.606;2023-07-02T07:52:36;18.90;99.90
20985;DHT22;10651;47.552;7.606;2023-07-02T07:55:06;18.80;99.90
20985;DHT22;10651;47.552;7.606;2023-07-02T07:57:32;18.80;99.90
20985;DHT22;10651;47.552;7.606;2023-07-02T07:59:58;18.90;99.90
20985;DHT22;10651;47.552;7.606;2023-07-02T08:02:24;18.80;99.90
20985;DHT22;10651;47.552;7.606;2023-07-02T08:04:49;18.90;99.90
20985;DHT22;10651;47.552;7.606;2023-07-02T08:07:15;18.90;99.90
20985;DHT22;10651;47.552;7.606;2023-07-02T08:09:41;18.90;99.90
20985;DHT22;10651;47.552;7.606;2023-07-02T08:12:09;19.00;99.90
20985;DHT22;10651;47.552;7.606;2023-07-02T08:14:40;19.10;99.90
20985;DHT22;10651;47.552;7.606;2023-07-02T08:17:09;19.30;99.90
20985;DHT22;10651;47.552;7.606;2023-07-02T08:19:35;19.50;99.90
20985;DHT22;10651;47.552;7.606;2023-07-02T08:22:04;19.50;99.90
20985;DHT22;10651;47.552;7.606;2023-07-02T08:24:30;19.60;99.90
20985;DHT22;10651;47.552;7.606;2023-07-02T08:26:57;19.80;99.90
20985;DHT22;10651;47.552;7.606;2023-07-02T08:29:23;19.90;99.90
20985;DHT22;10651;47.552;7.606;2023-07-02T08:31:49;20.10;99.90
20985;DHT22;10651;47.552;7.606;2023-07-02T08:34:18;20.30;99.90
20985;DHT22;10651;47.552;7.606;2023-07-02T08:36:47;20.30;99.90
20985;DHT22;10651;47.552;7.606;2023-07-02T08:41:46;20.40;99.90
20985;DHT22;10651;47.552;7.606;2023-07-02T08:44:13;20.50;99.90
20985;DHT22;10651;47.552;7.606;2023-07-02T08:46:43;20.50;99.90
20985;DHT22;10651;47.552;7.606;2023-07-02T08:49:09;20.60;99.90
20985;DHT22;10651;47.552;7.606;2023-07-02T08:51:35;20.40;99.90
20985;DHT22;10651;47.552;7.606;2023-07-02T08:54:02;20.40;99.90
20985;DHT22;10651;47.552;7.606;2023-07-02T08:56:28;20.30;99.90
20985;DHT22;10651;47.552;7.606;2023-07-02T08:58:54;20.20;99.90
20985;DHT22;10651;47.552;7.606;2023-07-02T09:01:20;20.20;99.90
20985;DHT22;10651;47.552;7.606;2023-07-02T09:03:46;20.20;99.90
20985;DHT22;10651;47.552;7.606;2023-07-02T09:06:17;20.40;99.90
20985;DHT22;10651;47.552;7.606;2023-07-02T09:09:06;20.50;99.90
20985;DHT22;10651;47.552;7.606;2023-07-02T09:11:35;20.50;99.90
20985;DHT22;10651;47.552;7.606;2023-07-02T09:14:11;20.50;99.90
20985;DHT22;10651;47.552;7.606;2023-07-02T09:16:37;20.50;99.90
20985;DHT22;10651;47.552;7.606;2023-07-02T09:19:07;20.60;99.90
20985;DHT22;10651;47.552;7.606;2023-07-02T09:21:48;20.50;99.90
20985;DHT22;10651;47.552;7.606;2023-07-02T09:24:22;20.70;99.90
20985;DHT22;10651;47.552;7.606;2023-07-02T09:26:52;20.70;99.90
20985;DHT22;10651;47.552;7.606;2023-07-02T09:29:27;20.80;99.90
20985;DHT22;10651;47.552;7.606;2023-07-02T09:32:03;20.70;99.90
20985;DHT22;10651;47.552;7.606;2023-07-02T09:34:35;20.60;99.90
20985;DHT22;10651;47.552;7.606;2023-07-02T09:37:02;20.60;99.90
20985;DHT22;10651;47.552;7.606;2023-07-02T09:39:33;20.60;99.90
20985;DHT22;10651;47.552;7.606;2023-07-02T09:42:00;20.70;99.90
20985;DHT22;10651;47.552;7.606;2023-07-02T09:44:30;20.70;99.90
20985;DHT22;10651;47.552;7.606;2023-07-02T09:47:07;20.80;99.90
20985;DHT22;10651;47.552;7.606;2023-07-02T09:49:34;20.80;99.90
20985;DHT22;10651;47.552;7.606;2023-07-02T09:52:02;21.00;99.90
20985;DHT22;10651;47.552;7.606;2023-07-02T09:54:29;21.10;99.90
20985;DHT22;10651;47.552;7.606;2023-07-02T09:56:56;21.00;99.90
20985;DHT22;10651;47.552;7.606;2023-07-02T09:59:23;21.00;99.90
20985;DHT22;10651;47.552;7.606;2023-07-02T10:01:50;20.80;99.90
20985;DHT22;10651;47.552;7.606;2023-07-02T10:04:18;21.00;99.90
20985;DHT22;10651;47.552;7.606;2023-07-02T10:06:48;20.90;99.90
20985;DHT22;10651;47.552;7.606;2023-07-02T10:09:16;21.00;99.90
20985;DHT22;10651;47.552;7.606;2023-07-02T10:11:45;21.10;99.90
20985;DHT22;10651;47.552;7.606;2023-07-02T10:14:11;21.10;99.90
20985;DHT22;10651;47.552;7.606;2023-07-02T10:16:54;21.20;99.90
20985;DHT22;10651;47.552;7.606;2023-07-02T10:19:21;21.30;99.90
20985;DHT22;10651;47.552;7.606;2023-07-02T10:21:47;21.60;99.90
20985;DHT22;10651;47.552;7.606;2023-07-02T10:24:25;21.70;99.90
20985;DHT22;10651;47.552;7.606;2023-07-02T10:26:58;21.80;99.90
20985;DHT22;10651;47.552;7.606;2023-07-02T10:29:25;21.90;99.90
20985;DHT22;10651;47.552;7.606;2023-07-02T10:31:52;21.90;99.90
20985;DHT22;10651;47.552;7.606;2023-07-02T10:34:34;22.10;99.90
20985;DHT22;10651;47.552;7.606;2023-07-02T10:37:01;22.20;99.90
20985;DHT22;10651;47.552;7.606;2023-07-02T10:39:28;22.20;99.90
20985;DHT22;10651;47.552;7.606;2023-07-02T10:42:07;22.30;99.90
20985;DHT22;10651;47.552;7.606;2023-07-02T10:44:33;22.40;99.90
20985;DHT22;10651;47.552;7.606;2023-07-02T10:46:59;22.60;99.90
20985;DHT22;10651;47.552;7.606;2023-07-02T10:49:32;22.60;99.90
20985;DHT22;10651;47.552;7.606;2023-07-02T10:52:01;22.70;99.90
20985;DHT22;10651;47.552;7.606;2023-07-02T10:54:39;22.50;99.90
20985;DHT22;10651;47.552;7.606;2023-07-02T10:57:06;22.60;99.90
20985;DHT22;10651;47.552;7.606;2023-07-02T10:59:32;22.80;99.90
20985;DHT22;10651;47.552;7.606;2023-07-02T11:02:00;23.00;99.90
20985;DHT22;10651;47.552;7.606;2023-07-02T11:04:30;23.40;99.90
20985;DHT22;10651;47.552;7.606;2023-07-02T11:40:01;24.50;99.90
20985;DHT22;10651;47.552;7.606;2023-07-02T11:42:30;24.30;99.90
20985;DHT22;10651;47.552;7.606;2023-07-02T11:44:55;23.90;99.90
20985;DHT22;10651;47.552;7.606;2023-07-02T11:48:12;24.10;99.90
20985;DHT22;10651;47.552;7.606;2023-07-02T11:50:38;24.20;99.90
20985;DHT22;10651;47.552;7.606;2023-07-02T11:55:28;24.50;99.90
20985;DHT22;10651;47.552;7.606;2023-07-02T11:57:54;24.90;99.90
20985;DHT22;10651;47.552;7.606;2023-07-02T12:00:20;25.10;99.90
20985;DHT22;10651;47.552;7.606;2023-07-02T12:02:45;25.40;99.90
20985;DHT22;10651;47.552;7.606;2023-07-02T12:05:11;25.40;99.90
20985;DHT22;10651;47.552;7.606;2023-07-02T12:07:37;25.50;99.90
20985;DHT22;10651;47.552;7.606;2023-07-02T12:10:03;25.50;99.90
20985;DHT22;10651;47.552;7.606;2023-07-02T12:12:28;25.40;99.90
20985;DHT22;10651;47.552;7.606;2023-07-02T12:14:54;25.50;99.90
20985;DHT22;10651;47.552;7.606;2023-07-02T12:50:39;24.90;99.90
20985;DHT22;10651;47.552;7.606;2023-07-02T12:53:06;25.10;99.90
20985;DHT22;10651;47.552;7.606;2023-07-02T12:55:31;25.00;99.90
20985;DHT22;10651;47.552;7.606;2023-07-02T12:57:57;25.00;99.90
20985;DHT22;10651;47.552;7.606;2023-07-02T13:00:23;25.30;99.90
20985;DHT22;10651;47.552;7.606;2023-07-02T13:02:49;25.40;99.90
20985;DHT22;10651;47.552;7.606;2023-07-02T13:05:15;25.30;99.90
20985;DHT22;10651;47.552;7.606;2023-07-02T13:07:40;25.50;99.90
20985;DHT22;10651;47.552;7.606;2023-07-02T13:10:06;25.80;99.90
20985;DHT22;10651;47.552;7.606;2023-07-02T13:12:32;25.80;99.90
20985;DHT22;10651;47.552;7.606;2023-07-02T13:14:58;25.70;99.90
20985;DHT22;10651;47.552;7.606;2023-07-02T13:17:24;25.70;99.90
20985;DHT22;10651;47.552;7.606;2023-07-02T13:19:50;25.70;99.90
20985;DHT22;10651;47.552;7.606;2023-07-02T13:22:15;25.60;99.90
20985;DHT22;10651;47.552;7.606;2023-07-02T13:24:42;25.50;99.90
20985;DHT22;10651;47.552;7.606;2023-07-02T13:27:15;25.10;99.90
20985;DHT22;10651;47.552;7.606;2023-07-02T13:29:42;24.70;99.90
20985;DHT22;10651;47.552;7.606;2023-07-02T13:32:07;25.10;99.90
20985;DHT22;10651;47.552;7.606;2023-07-02T13:34:33;25.30;99.90
20985;DHT22;10651;47.552;7.606;2023-07-02T13:36:59;25.40;99.90
20985;DHT22;10651;47.552;7.606;2023-07-02T13:39:25;25.60;99.90
20985;DHT22;10651;47.552;7.606;2023-07-02T13:41:50;26.00;99.90
20985;DHT22;10651;47.552;7.606;2023-07-02T13:44:16;25.80;99.90
20985;DHT22;10651;47.552;7.606;2023-07-02T13:46:43;25.70;99.90
20985;DHT22;10651;47.552;7.606;2023-07-02T13:49:10;25.50;99.90
20985;DHT22;10651;47.552;7.606;2023-07-02T13:51:36;25.60;99.90
20985;DHT22;10651;47.552;7.606;2023-07-02T13:54:01;25.50;99.90
20985;DHT22;10651;47.552;7.606;2023-07-02T13:56:27;25.60;99.90
20985;DHT22;10651;47.552;7.606;2023-07-02T14:01:24;25.50;99.90
20985;DHT22;10651;47.552;7.606;2023-07-02T14:03:50;25.70;99.90
20985;DHT22;10651;47.552;7.606;2023-07-02T14:06:16;25.90;99.90
20985;DHT22;10651;47.552;7.606;2023-07-02T14:08:42;26.00;99.90
20985;DHT22;10651;47.552;7.606;2023-07-02T14:11:08;26.00;99.90
20985;DHT22;10651;47.552;7.606;2023-07-02T14:13:34;26.10;99.90
20985;DHT22;10651;47.552;7.606;2023-07-02T14:16:00;26.20;99.90
20985;DHT22;10651;47.552;7.606;2023-07-02T14:18:26;26.20;99.90
20985;DHT22;10651;47.552;7.606;2023-07-02T14:20:52;26.30;99.90
20985;DHT22;10651;47.552;7.606;2023-07-02T14:23:18;26.50;99.90
20985;DHT22;10651;47.552;7.606;2023-07-02T14:25:43;26.40;99.90
20985;DHT22;10651;47.552;7.606;2023-07-02T14:28:09;26.30;99.90
20985;DHT22;10651;47.552;7.606;2023-07-02T14:30:36;26.10;99.90
20985;DHT22;10651;47.552;7.606;2023-07-02T14:33:02;25.80;99.90
20985;DHT22;10651;47.552;7.606;2023-07-02T14:35:28;25.40;99.90
20985;DHT22;10651;47.552;7.606;2023-07-02T14:37:56;25.40;99.90
20985;DHT22;10651;47.552;7.606;2023-07-02T14:40:22;25.50;99.90
20985;DHT22;10651;47.552;7.606;2023-07-02T14:42:48;25.20;99.90
20985;DHT22;10651;47.552;7.606;2023-07-02T14:45:14;24.80;99.90
20985;DHT22;10651;47.552;7.606;2023-07-02T14:47:39;24.80;99.90
20985;DHT22;10651;47.552;7.606;2023-07-02T14:50:05;25.00;99.90
20985;DHT22;10651;47.552;7.606;2023-07-02T14:52:31;25.00;99.90
20985;DHT22;10651;47.552;7.606;2023-07-02T14:54:57;24.90;99.90
20985;DHT22;10651;47.552;7.606;2023-07-02T14:57:25;24.80;99.90
20985;DHT22;10651;47.552;7.606;2023-07-02T14:59:51;24.60;99.90
20985;DHT22;10651;47.552;7.606;2023-07-02T15:02:18;24.60;99.90
20985;DHT22;10651;47.552;7.606;2023-07-02T15:04:44;24.70;99.90
20985;DHT22;10651;47.552;7.606;2023-07-02T15:07:10;24.70;99.90
20985;DHT22;10651;47.552;7.606;2023-07-02T15:09:36;25.10;99.90
20985;DHT22;10651;47.552;7.606;2023-07-02T15:12:02;25.10;99.90
20985;DHT22;10651;47.552;7.606;2023-07-02T15:14:28;25.00;99.90
20985;DHT22;10651;47.552;7.606;2023-07-02T15:16:54;25.10;99.90
20985;DHT22;10651;47.552;7.606;2023-07-02T15:19:20;25.20;99.90
20985;DHT22;10651;47.552;7.606;2023-07-02T15:21:46;25.20;99.90
20985;DHT22;10651;47.552;7.606;2023-07-02T15:24:11;25.40;99.90
20985;DHT22;10651;47.552;7.606;2023-07-02T15:26:39;25.40;99.90
20985;DHT22;10651;47.552;7.606;2023-07-02T15:29:05;25.10;99.90
20985;DHT22;10651;47.552;7.606;2023-07-02T15:31:31;25.20;99.90
20985;DHT22;10651;47.552;7.606;2023-07-02T15:33:57;25.30;99.90
20985;DHT22;10651;47.552;7.606;2023-07-02T15:36:22;25.40;99.90
20985;DHT22;10651;47.552;7.606;2023-07-02T15:38:49;25.30;99.90
20985;DHT22;10651;47.552;7.606;2023-07-02T15:41:17;25.10;99.90
20985;DHT22;10651;47.552;7.606;2023-07-02T15:43:45;25.20;99.90
20985;DHT22;10651;47.552;7.606;2023-07-02T15:46:13;25.40;99.90
20985;DHT22;10651;47.552;7.606;2023-07-02T15:48:39;25.50;99.90
20985;DHT22;10651;47.552;7.606;2023-07-02T15:51:06;25.70;99.90
20985;DHT22;10651;47.552;7.606;2023-07-02T15:53:34;25.60;99.90
20985;DHT22;10651;47.552;7.606;2023-07-02T15:56:00;25.50;99.90
20985;DHT22;10651;47.552;7.606;2023-07-02T15:58:27;25.30;99.90
20985;DHT22;10651;47.552;7.606;2023-07-02T16:00:54;25.10;99.90
20985;DHT22;10651;47.552;7.606;2023-07-02T16:03:20;25.00;99.90
20985;DHT22;10651;47.552;7.606;2023-07-02T16:05:46;25.10;99.90
20985;DHT22;10651;47.552;7.606;2023-07-02T16:08:12;25.20;99.90
20985;DHT22;10651;47.552;7.606;2023-07-02T16:10:44;25.10;99.90
20985;DHT22;10651;47.552;7.606;2023-07-02T16:13:11;25.20;99.90
20985;DHT22;10651;47.552;7.606;2023-07-02T16:15:40;25.30;99.90
20985;DHT22;10651;47.552;7.606;2023-07-02T16:18:09;25.40;99.90
20985;DHT22;10651;47.552;7.606;2023-07-02T16:20:36;25.30;99.90
20985;DHT22;10651;47.552;7.606;2023-07-02T16:23:03;25.40;99.90
20985;DHT22;10651;47.552;7.606;2023-07-02T16:25:29;25.50;99.90
20985;DHT22;10651;47.552;7.606;2023-07-02T16:27:55;25.50;99.90
20985;DHT22;10651;47.552;7.606;2023-07-02T16:30:21;25.20;99.90
20985;DHT22;10651;47.552;7.606;2023-07-02T16:32:47;25.10;99.90
20985;DHT22;10651;47.552;7.606;2023-07-02T16:35:13;25.10;99.90
20985;DHT22;10651;47.552;7.606;2023-07-02T16:37:38;25.10;99.90
20985;DHT22;10651;47.552;7.606;2023-07-02T16:40:05;25.10;99.90
20985;DHT22;10651;47.552;7.606;2023-07-02T16:42:31;25.20;99.90
20985;DHT22;10651;47.552;7.606;2023-07-02T16:44:56;25.30;99.90
20985;DHT22;10651;47.552;7.606;2023-07-02T16:47:22;25.20;99.90
20985;DHT22;10651;47.552;7.606;2023-07-02T16:49:48;25.20;99.90
20985;DHT22;10651;47.552;7.606;2023-07-02T16:52:14;25.10;99.90
20985;DHT22;10651;47.552;7.606;2023-07-02T16:54:40;24.90;99.90
20985;DHT22;10651;47.552;7.606;2023-07-02T16:57:06;24.90;99.90
20985;DHT22;10651;47.552;7.606;2023-07-02T16:59:33;25.00;99.90
20985;DHT22;10651;47.552;7.606;2023-07-02T17:02:05;25.00;99.90
20985;DHT22;10651;47.552;7.606;2023-07-02T17:04:32;25.00;99.90
20985;DHT22;10651;47.552;7.606;2023-07-02T17:07:00;24.80;99.90
20985;DHT22;10651;47.552;7.606;2023-07-02T17:09:34;24.80;99.90
20985;DHT22;10651;47.552;7.606;2023-07-02T17:12:13;24.70;99.90
20985;DHT22;10651;47.552;7.606;2023-07-02T17:14:41;24.70;99.90
20985;DHT22;10651;47.552;7.606;2023-07-02T17:17:16;24.50;99.90
20985;DHT22;10651;47.552;7.606;2023-07-02T17:19:45;24.40;99.90
20985;DHT22;10651;47.552;7.606;2023-07-02T17:22:17;24.20;99.90
20985;DHT22;10651;47.552;7.606;2023-07-02T17:24:45;24.20;99.90
20985;DHT22;10651;47.552;7.606;2023-07-02T17:27:13;24.10;99.90
20985;DHT22;10651;47.552;7.606;2023-07-02T17:29:41;24.10;99.90
20985;DHT22;10651;47.552;7.606;2023-07-02T17:32:08;24.10;99.90
20985;DHT22;10651;47.552;7.606;2023-07-02T17:34:35;24.10;99.90
20985;DHT22;10651;47.552;7.606;2023-07-02T17:37:06;24.00;99.90
20985;DHT22;10651;47.552;7.606;2023-07-02T17:39:34;24.10;99.90
20985;DHT22;10651;47.552;7.606;2023-07-02T17:42:01;24.00;99.90
20985;DHT22;10651;47.552;7.606;2023-07-02T17:44:30;24.00;99.90
20985;DHT22;10651;47.552;7.606;2023-07-02T17:47:02;24.00;99.90
20985;DHT22;10651;47.552;7.606;2023-07-02T17:49:33;23.90;99.90
20985;DHT22;10651;47.552;7.606;2023-07-02T17:51:59;23.80;99.90
20985;DHT22;10651;47.552;7.606;2023-07-02T17:54:25;23.80;99.90
20985;DHT22;10651;47.552;7.606;2023-07-02T17:56:53;23.80;99.90
20985;DHT22;10651;47.552;7.606;2023-07-02T17:59:20;23.80;99.90
20985;DHT22;10651;47.552;7.606;2023-07-02T18:01:48;23.80;99.90
20985;DHT22;10651;47.552;7.606;2023-07-02T18:04:18;23.70;99.90
20985;DHT22;10651;47.552;7.606;2023-07-02T18:06:45;23.70;99.90
20985;DHT22;10651;47.552;7.606;2023-07-02T18:09:13;23.70;99.90
20985;DHT22;10651;47.552;7.606;2023-07-02T18:11:39;23.70;99.90
20985;DHT22;10651;47.552;7.606;2023-07-02T18:14:05;23.70;99.90
20985;DHT22;10651;47.552;7.606;2023-07-02T18:16:31;23.70;99.90
20985;DHT22;10651;47.552;7.606;2023-07-02T18:18:57;23.60;99.90
20985;DHT22;10651;47.552;7.606;2023-07-02T18:21:23;23.60;99.90
20985;DHT22;10651;47.552;7.606;2023-07-02T18:23:49;23.60;99.90
20985;DHT22;10651;47.552;7.606;2023-07-02T18:26:15;23.60;99.90
20985;DHT22;10651;47.552;7.606;2023-07-02T18:28:41;23.60;99.90
20985;DHT22;10651;47.552;7.606;2023-07-02T18:31:08;23.60;99.90
20985;DHT22;10651;47.552;7.606;2023-07-02T18:33:35;23.60;99.90
20985;DHT22;10651;47.552;7.606;2023-07-02T18:36:01;23.50;99.90
20985;DHT22;10651;47.552;7.606;2023-07-02T18:38:27;23.40;99.90
20985;DHT22;10651;47.552;7.606;2023-07-02T18:41:04;23.40;99.90
20985;DHT22;10651;47.552;7.606;2023-07-02T18:43:31;23.40;99.90
20985;DHT22;10651;47.552;7.606;2023-07-02T18:45:57;23.40;99.90
20985;DHT22;10651;47.552;7.606;2023-07-02T18:48:23;23.30;99.90
20985;DHT22;10651;47.552;7.606;2023-07-02T18:50:49;23.30;99.90
20985;DHT22;10651;47.552;7.606;2023-07-02T18:53:15;23.20;99.90
20985;DHT22;10651;47.552;7.606;2023-07-02T18:55:41;23.10;99.90
20985;DHT22;10651;47.552;7.606;2023-07-02T18:58:07;23.00;99.90
20985;DHT22;10651;47.552;7.606;2023-07-02T19:00:32;23.00;99.90
20985;DHT22;10651;47.552;7.606;2023-07-02T19:02:58;22.90;99.90
20985;DHT22;10651;47.552;7.606;2023-07-02T19:05:24;22.80;99.90
20985;DHT22;10651;47.552;7.606;2023-07-02T19:07:49;22.80;99.90
20985;DHT22;10651;47.552;7.606;2023-07-02T19:10:16;22.70;99.90
20985;DHT22;10651;47.552;7.606;2023-07-02T19:12:44;22.70;99.90
20985;DHT22;10651;47.552;7.606;2023-07-02T19:15:10;22.60;99.90
20985;DHT22;10651;47.552;7.606;2023-07-02T19:17:36;22.60;99.90
20985;DHT22;10651;47.552;7.606;2023-07-02T19:20:05;22.50;99.90
20985;DHT22;10651;47.552;7.606;2023-07-02T19:22:32;22.50;99.90
20985;DHT22;10651;47.552;7.606;2023-07-02T19:24:57;22.50;99.90
20985;DHT22;10651;47.552;7.606;2023-07-02T19:27:23;22.40;99.90
20985;DHT22;10651;47.552;7.606;2023-07-02T19:29:49;22.40;99.90
20985;DHT22;10651;47.552;7.606;2023-07-02T19:32:23;22.40;99.90
20985;DHT22;10651;47.552;7.606;2023-07-02T19:34:50;22.30;99.90
20985;DHT22;10651;47.552;7.606;2023-07-02T19:37:18;22.30;99.90
20985;DHT22;10651;47.552;7.606;2023-07-02T19:39:44;22.30;99.90
20985;DHT22;10651;47.552;7.606;2023-07-02T19:42:09;22.40;99.90
20985;DHT22;10651;47.552;7.606;2023-07-02T19:44:40;22.40;99.90
20985;DHT22;10651;47.552;7.606;2023-07-02T19:47:06;22.40;99.90
20985;DHT22;10651;47.552;7.606;2023-07-02T19:49:32;22.40;99.90
20985;DHT22;10651;47.552;7.606;2023-07-02T19:51:59;22.40;99.90
20985;DHT22;10651;47.552;7.606;2023-07-02T19:54:27;22.40;99.90
20985;DHT22;10651;47.552;7.606;2023-07-02T19:56:52;22.40;99.90
20985;DHT22;10651;47.552;7.606;2023-07-02T19:59:18;22.40;99.90
20985;DHT22;10651;47.552;7.606;2023-07-02T20:01:44;22.30;99.90
20985;DHT22;10651;47.552;7.606;2023-07-02T20:04:18;22.40;99.90
20985;DHT22;10651;47.552;7.606;2023-07-02T20:06:44;22.40;99.90
20985;DHT22;10651;47.552;7.606;2023-07-02T20:09:10;22.40;99.90
20985;DHT22;10651;47.552;7.606;2023-07-02T20:11:36;22.30;99.90
20985;DHT22;10651;47.552;7.606;2023-07-02T20:14:01;22.30;99.90
20985;DHT22;10651;47.552;7.606;2023-07-02T20:16:27;22.20;99.90
20985;DHT22;10651;47.552;7.606;2023-07-02T20:18:53;22.20;99.90
20985;DHT22;10651;47.552;7.606;2023-07-02T20:21:20;22.20;99.90
20985;DHT22;10651;47.552;7.606;2023-07-02T20:23:46;22.20;99.90
20985;DHT22;10651;47.552;7.606;2023-07-02T20:26:26;22.20;99.90
20985;DHT22;10651;47.552;7.606;2023-07-02T20:28:51;22.10;99.90
20985;DHT22;10651;47.552;7.606;2023-07-02T20:31:17;22.10;99.90
20985;DHT22;10651;47.552;7.606;2023-07-02T20:33:43;22.00;99.90
20985;DHT22;10651;47.552;7.606;2023-07-02T20:36:13;22.00;99.90
20985;DHT22;10651;47.552;7.606;2023-07-02T20:38:38;22.00;99.90
20985;DHT22;10651;47.552;7.606;2023-07-02T20:41:07;21.90;99.90
20985;DHT22;10651;47.552;7.606;2023-07-02T20:43:35;21.90;99.90
20985;DHT22;10651;47.552;7.606;2023-07-02T20:46:08;21.80;99.90
20985;DHT22;10651;47.552;7.606;2023-07-02T20:48:35;21.80;99.90
20985;DHT22;10651;47.552;7.606;2023-07-02T20:51:04;21.80;99.90
20985;DHT22;10651;47.552;7.606;2023-07-02T20:53:30;21.80;99.90
20985;DHT22;10651;47.552;7.606;2023-07-02T20:55:56;21.80;99.90
20985;DHT22;10651;47.552;7.606;2023-07-02T20:58:22;21.80;99.90
20985;DHT22;10651;47.552;7.606;2023-07-02T21:00:48;21.80;99.90
20985;DHT22;10651;47.552;7.606;2023-07-02T21:03:14;21.70;99.90
20985;DHT22;10651;47.552;7.606;2023-07-02T21:05:40;21.70;99.90
20985;DHT22;10651;47.552;7.606;2023-07-02T21:08:06;21.70;99.90
20985;DHT22;10651;47.552;7.606;2023-07-02T21:10:32;21.60;99.90
20985;DHT22;10651;47.552;7.606;2023-07-02T21:12:59;21.60;99.90
20985;DHT22;10651;47.552;7.606;2023-07-02T21:15:26;21.60;99.90
20985;DHT22;10651;47.552;7.606;2023-07-02T21:17:51;21.60;99.90
20985;DHT22;10651;47.552;7.606;2023-07-02T21:20:17;21.60;99.90
20985;DHT22;10651;47.552;7.606;2023-07-02T21:22:43;21.50;99.90
20985;DHT22;10651;47.552;7.606;2023-07-02T21:25:12;21.50;99.90
20985;DHT22;10651;47.552;7.606;2023-07-02T21:27:37;21.50;99.90
